sensor_id;sensor_type;location;lat;lon;timestamp;P1;durP1;ratioP1;P2;durP2;ratioP2
39486;SDS011;25173;50.430;18.926;2023-08-12T00:02:24;26.52;;;14.25;;
39486;SDS011;25173;50.430;18.926;2023-08-12T00:05:25;31.17;;;14.90;;
39486;SDS011;25173;50.430;18.926;2023-08-12T00:08:25;25.65;;;12.82;;
39486;SDS011;25173;50.430;18.926;2023-08-12T00:11:26;21.92;;;12.55;;
39486;SDS011;25173;50.430;18.926;2023-08-12T00:14:26;22.65;;;11.60;;
39486;SDS011;25173;50.430;18.926;2023-08-12T00:17:27;19.08;;;10.57;;
39486;SDS011;25173;50.430;18.926;2023-08-12T00:20:27;19.10;;;11.38;;
39486;SDS011;25173;50.430;18.926;2023-08-12T00:23:28;18.17;;;10.38;;
39486;SDS011;25173;50.430;18.926;2023-08-12T00:26:30;21.70;;;11.00;;
39486;SDS011;25173;50.430;18.926;2023-08-12T00:29:30;20.33;;;11.23;;
39486;SDS011;25173;50.430;18.926;2023-08-12T00:32:31;30.50;;;14.13;;
39486;SDS011;25173;50.430;18.926;2023-08-12T00:35:31;17.83;;;11.40;;
39486;SDS011;25173;50.430;18.926;2023-08-12T00:38:32;24.88;;;10.13;;
39486;SDS011;25173;50.430;18.926;2023-08-12T00:41:32;20.23;;;11.52;;
39486;SDS011;25173;50.430;18.926;2023-08-12T00:44:33;21.10;;;11.45;;
39486;SDS011;25173;50.430;18.926;2023-08-12T00:47:33;20.85;;;12.13;;
39486;SDS011;25173;50.430;18.926;2023-08-12T00:50:35;27.20;;;13.65;;
39486;SDS011;25173;50.430;18.926;2023-08-12T00:53:37;23.90;;;14.60;;
39486;SDS011;25173;50.430;18.926;2023-08-12T00:56:38;27.15;;;13.93;;
39486;SDS011;25173;50.430;18.926;2023-08-12T00:59:39;23.52;;;13.52;;
39486;SDS011;25173;50.430;18.926;2023-08-12T01:02:44;18.67;;;11.70;;
39486;SDS011;25173;50.430;18.926;2023-08-12T01:05:48;24.83;;;11.32;;
39486;SDS011;25173;50.430;18.926;2023-08-12T01:08:48;25.73;;;12.93;;
39486;SDS011;25173;50.430;18.926;2023-08-12T01:11:52;25.58;;;15.82;;
39486;SDS011;25173;50.430;18.926;2023-08-12T01:15:10;27.92;;;15.10;;
39486;SDS011;25173;50.430;18.926;2023-08-12T01:18:16;25.27;;;13.88;;
39486;SDS011;25173;50.430;18.926;2023-08-12T01:21:18;28.73;;;16.10;;
39486;SDS011;25173;50.430;18.926;2023-08-12T01:24:24;28.40;;;14.60;;
39486;SDS011;25173;50.430;18.926;2023-08-12T01:27:25;31.67;;;16.05;;
39486;SDS011;25173;50.430;18.926;2023-08-12T01:30:25;34.63;;;15.90;;
39486;SDS011;25173;50.430;18.926;2023-08-12T01:36:42;31.48;;;16.48;;
39486;SDS011;25173;50.430;18.926;2023-08-12T01:39:49;34.85;;;15.43;;
39486;SDS011;25173;50.430;18.926;2023-08-12T01:42:52;29.20;;;16.08;;
39486;SDS011;25173;50.430;18.926;2023-08-12T01:45:53;36.67;;;16.80;;
39486;SDS011;25173;50.430;18.926;2023-08-12T01:48:54;29.77;;;15.65;;
39486;SDS011;25173;50.430;18.926;2023-08-12T01:51:54;23.88;;;12.68;;
39486;SDS011;25173;50.430;18.926;2023-08-12T01:54:57;23.38;;;13.20;;
39486;SDS011;25173;50.430;18.926;2023-08-12T01:57:58;21.70;;;12.77;;
39486;SDS011;25173;50.430;18.926;2023-08-12T02:00:58;23.85;;;13.18;;
39486;SDS011;25173;50.430;18.926;2023-08-12T02:03:59;27.20;;;13.85;;
39486;SDS011;25173;50.430;18.926;2023-08-12T02:06:59;26.15;;;13.27;;
39486;SDS011;25173;50.430;18.926;2023-08-12T02:10:00;21.63;;;12.60;;
39486;SDS011;25173;50.430;18.926;2023-08-12T02:13:01;22.45;;;12.68;;
39486;SDS011;25173;50.430;18.926;2023-08-12T02:16:03;18.55;;;11.95;;
39486;SDS011;25173;50.430;18.926;2023-08-12T02:19:04;21.50;;;10.32;;
39486;SDS011;25173;50.430;18.926;2023-08-12T02:22:05;25.58;;;12.38;;
39486;SDS011;25173;50.430;18.926;2023-08-12T02:25:06;27.80;;;13.68;;
39486;SDS011;25173;50.430;18.926;2023-08-12T02:28:06;27.30;;;13.60;;
39486;SDS011;25173;50.430;18.926;2023-08-12T02:31:09;38.00;;;15.30;;
39486;SDS011;25173;50.430;18.926;2023-08-12T02:34:10;28.55;;;15.30;;
39486;SDS011;25173;50.430;18.926;2023-08-12T02:37:10;31.98;;;14.80;;
39486;SDS011;25173;50.430;18.926;2023-08-12T02:40:12;28.45;;;14.02;;
39486;SDS011;25173;50.430;18.926;2023-08-12T02:43:13;31.35;;;15.05;;
39486;SDS011;25173;50.430;18.926;2023-08-12T02:46:13;33.42;;;16.38;;
39486;SDS011;25173;50.430;18.926;2023-08-12T02:49:15;30.75;;;16.77;;
39486;SDS011;25173;50.430;18.926;2023-08-12T02:52:16;30.67;;;15.00;;
39486;SDS011;25173;50.430;18.926;2023-08-12T02:55:17;37.63;;;18.10;;
39486;SDS011;25173;50.430;18.926;2023-08-12T02:58:17;32.13;;;14.75;;
39486;SDS011;25173;50.430;18.926;2023-08-12T03:01:18;28.30;;;14.10;;
39486;SDS011;25173;50.430;18.926;2023-08-12T03:04:19;27.40;;;13.65;;
39486;SDS011;25173;50.430;18.926;2023-08-12T03:07:21;26.27;;;13.65;;
39486;SDS011;25173;50.430;18.926;2023-08-12T03:10:22;32.03;;;14.88;;
39486;SDS011;25173;50.430;18.926;2023-08-12T03:13:23;27.40;;;14.25;;
39486;SDS011;25173;50.430;18.926;2023-08-12T03:16:23;26.80;;;12.32;;
39486;SDS011;25173;50.430;18.926;2023-08-12T03:19:26;20.83;;;11.10;;
39486;SDS011;25173;50.430;18.926;2023-08-12T03:22:29;28.58;;;14.55;;
39486;SDS011;25173;50.430;18.926;2023-08-12T03:25:31;26.05;;;12.55;;
39486;SDS011;25173;50.430;18.926;2023-08-12T03:28:32;18.98;;;10.45;;
39486;SDS011;25173;50.430;18.926;2023-08-12T03:31:34;20.77;;;10.18;;
39486;SDS011;25173;50.430;18.926;2023-08-12T03:34:34;29.00;;;12.48;;
39486;SDS011;25173;50.430;18.926;2023-08-12T03:37:36;22.83;;;12.07;;
39486;SDS011;25173;50.430;18.926;2023-08-12T03:40:40;36.28;;;14.50;;
39486;SDS011;25173;50.430;18.926;2023-08-12T03:43:43;26.45;;;13.55;;
39486;SDS011;25173;50.430;18.926;2023-08-12T03:46:44;38.63;;;17.08;;
39486;SDS011;25173;50.430;18.926;2023-08-12T03:49:45;32.20;;;13.82;;
39486;SDS011;25173;50.430;18.926;2023-08-12T03:52:46;28.23;;;12.38;;
39486;SDS011;25173;50.430;18.926;2023-08-12T03:55:47;22.48;;;12.55;;
39486;SDS011;25173;50.430;18.926;2023-08-12T03:58:50;18.13;;;9.63;;
39486;SDS011;25173;50.430;18.926;2023-08-12T04:01:51;16.55;;;9.52;;
39486;SDS011;25173;50.430;18.926;2023-08-12T04:04:51;18.08;;;9.45;;
39486;SDS011;25173;50.430;18.926;2023-08-12T04:07:52;26.58;;;12.18;;
39486;SDS011;25173;50.430;18.926;2023-08-12T04:10:52;19.02;;;10.45;;
39486;SDS011;25173;50.430;18.926;2023-08-12T04:13:53;24.20;;;10.13;;
39486;SDS011;25173;50.430;18.926;2023-08-12T04:16:54;17.48;;;10.25;;
39486;SDS011;25173;50.430;18.926;2023-08-12T04:19:54;20.88;;;11.15;;
39486;SDS011;25173;50.430;18.926;2023-08-12T04:22:55;16.20;;;9.55;;
39486;SDS011;25173;50.430;18.926;2023-08-12T04:25:55;19.17;;;10.07;;
39486;SDS011;25173;50.430;18.926;2023-08-12T04:29:00;18.05;;;9.68;;
39486;SDS011;25173;50.430;18.926;2023-08-12T04:32:01;18.67;;;9.95;;
39486;SDS011;25173;50.430;18.926;2023-08-12T04:35:02;20.23;;;10.98;;
39486;SDS011;25173;50.430;18.926;2023-08-12T04:38:03;20.23;;;11.63;;
39486;SDS011;25173;50.430;18.926;2023-08-12T04:41:04;23.13;;;11.95;;
39486;SDS011;25173;50.430;18.926;2023-08-12T04:44:05;19.80;;;11.10;;
39486;SDS011;25173;50.430;18.926;2023-08-12T04:47:06;16.73;;;9.63;;
39486;SDS011;25173;50.430;18.926;2023-08-12T04:50:09;14.52;;;8.93;;
39486;SDS011;25173;50.430;18.926;2023-08-12T04:53:11;16.05;;;9.20;;
39486;SDS011;25173;50.430;18.926;2023-08-12T04:56:11;18.38;;;9.57;;
39486;SDS011;25173;50.430;18.926;2023-08-12T04:59:12;17.63;;;10.55;;
39486;SDS011;25173;50.430;18.926;2023-08-12T05:02:13;14.45;;;9.23;;
39486;SDS011;25173;50.430;18.926;2023-08-12T05:05:13;17.27;;;10.52;;
39486;SDS011;25173;50.430;18.926;2023-08-12T05:08:15;16.45;;;10.05;;
39486;SDS011;25173;50.430;18.926;2023-08-12T05:11:15;22.35;;;10.43;;
39486;SDS011;25173;50.430;18.926;2023-08-12T05:14:16;14.00;;;10.23;;
39486;SDS011;25173;50.430;18.926;2023-08-12T05:17:17;23.25;;;10.05;;
39486;SDS011;25173;50.430;18.926;2023-08-12T05:20:19;17.25;;;10.32;;
39486;SDS011;25173;50.430;18.926;2023-08-12T05:23:22;13.70;;;10.18;;
39486;SDS011;25173;50.430;18.926;2023-08-12T05:26:23;16.52;;;10.52;;
39486;SDS011;25173;50.430;18.926;2023-08-12T05:29:24;16.73;;;10.27;;
39486;SDS011;25173;50.430;18.926;2023-08-12T05:32:24;14.30;;;9.98;;
39486;SDS011;25173;50.430;18.926;2023-08-12T05:35:25;14.20;;;8.88;;
39486;SDS011;25173;50.430;18.926;2023-08-12T05:38:26;17.08;;;10.00;;
39486;SDS011;25173;50.430;18.926;2023-08-12T05:41:26;16.42;;;10.02;;
39486;SDS011;25173;50.430;18.926;2023-08-12T05:44:27;17.52;;;12.25;;
39486;SDS011;25173;50.430;18.926;2023-08-12T05:47:28;17.13;;;11.55;;
39486;SDS011;25173;50.430;18.926;2023-08-12T05:50:28;12.65;;;11.23;;
39486;SDS011;25173;50.430;18.926;2023-08-12T05:53:29;13.55;;;10.90;;
39486;SDS011;25173;50.430;18.926;2023-08-12T05:56:29;15.70;;;11.60;;
39486;SDS011;25173;50.430;18.926;2023-08-12T05:59:30;16.33;;;11.13;;
39486;SDS011;25173;50.430;18.926;2023-08-12T06:02:31;18.58;;;11.93;;
39486;SDS011;25173;50.430;18.926;2023-08-12T06:05:31;18.35;;;11.57;;
39486;SDS011;25173;50.430;18.926;2023-08-12T06:08:32;16.55;;;12.05;;
39486;SDS011;25173;50.430;18.926;2023-08-12T06:11:33;19.13;;;11.90;;
39486;SDS011;25173;50.430;18.926;2023-08-12T06:14:35;17.13;;;13.00;;
39486;SDS011;25173;50.430;18.926;2023-08-12T06:17:37;14.13;;;11.63;;
39486;SDS011;25173;50.430;18.926;2023-08-12T06:20:37;20.65;;;14.07;;
39486;SDS011;25173;50.430;18.926;2023-08-12T06:23:38;16.95;;;11.80;;
39486;SDS011;25173;50.430;18.926;2023-08-12T06:26:38;14.98;;;12.52;;
39486;SDS011;25173;50.430;18.926;2023-08-12T06:29:39;16.33;;;13.27;;
39486;SDS011;25173;50.430;18.926;2023-08-12T06:32:40;16.67;;;11.38;;
39486;SDS011;25173;50.430;18.926;2023-08-12T06:35:41;15.65;;;10.23;;
39486;SDS011;25173;50.430;18.926;2023-08-12T06:38:42;14.60;;;9.82;;
39486;SDS011;25173;50.430;18.926;2023-08-12T06:41:42;14.98;;;8.98;;
39486;SDS011;25173;50.430;18.926;2023-08-12T06:44:45;13.18;;;9.07;;
39486;SDS011;25173;50.430;18.926;2023-08-12T06:47:46;14.75;;;9.50;;
39486;SDS011;25173;50.430;18.926;2023-08-12T06:50:52;12.88;;;9.00;;
39486;SDS011;25173;50.430;18.926;2023-08-12T06:53:53;15.57;;;9.32;;
39486;SDS011;25173;50.430;18.926;2023-08-12T06:56:54;13.38;;;7.97;;
39486;SDS011;25173;50.430;18.926;2023-08-12T06:59:54;13.77;;;7.00;;
39486;SDS011;25173;50.430;18.926;2023-08-12T07:02:55;11.20;;;5.60;;
39486;SDS011;25173;50.430;18.926;2023-08-12T07:05:55;8.10;;;5.47;;
39486;SDS011;25173;50.430;18.926;2023-08-12T07:08:56;9.25;;;6.53;;
39486;SDS011;25173;50.430;18.926;2023-08-12T07:11:57;13.15;;;7.22;;
39486;SDS011;25173;50.430;18.926;2023-08-12T07:14:58;13.05;;;8.00;;
39486;SDS011;25173;50.430;18.926;2023-08-12T07:17:58;12.05;;;6.88;;
39486;SDS011;25173;50.430;18.926;2023-08-12T07:20:59;12.85;;;7.35;;
39486;SDS011;25173;50.430;18.926;2023-08-12T07:24:00;15.38;;;8.48;;
39486;SDS011;25173;50.430;18.926;2023-08-12T07:27:00;13.60;;;7.40;;
39486;SDS011;25173;50.430;18.926;2023-08-12T07:30:01;14.23;;;7.20;;
39486;SDS011;25173;50.430;18.926;2023-08-12T07:33:01;18.15;;;7.47;;
39486;SDS011;25173;50.430;18.926;2023-08-12T07:36:02;22.58;;;8.13;;
39486;SDS011;25173;50.430;18.926;2023-08-12T07:39:03;11.68;;;6.63;;
39486;SDS011;25173;50.430;18.926;2023-08-12T07:42:04;10.85;;;6.68;;
39486;SDS011;25173;50.430;18.926;2023-08-12T07:45:05;13.50;;;6.93;;
39486;SDS011;25173;50.430;18.926;2023-08-12T07:48:06;13.88;;;6.50;;
39486;SDS011;25173;50.430;18.926;2023-08-12T07:51:06;9.00;;;5.70;;
39486;SDS011;25173;50.430;18.926;2023-08-12T07:54:07;14.13;;;7.55;;
39486;SDS011;25173;50.430;18.926;2023-08-12T07:57:07;13.60;;;5.93;;
39486;SDS011;25173;50.430;18.926;2023-08-12T08:00:08;14.80;;;6.15;;
39486;SDS011;25173;50.430;18.926;2023-08-12T08:03:10;14.45;;;8.00;;
39486;SDS011;25173;50.430;18.926;2023-08-12T08:06:11;51.03;;;19.45;;
39486;SDS011;25173;50.430;18.926;2023-08-12T08:09:12;25.08;;;13.40;;
39486;SDS011;25173;50.430;18.926;2023-08-12T08:12:13;10.63;;;6.90;;
39486;SDS011;25173;50.430;18.926;2023-08-12T08:15:13;14.82;;;7.43;;
39486;SDS011;25173;50.430;18.926;2023-08-12T08:18:14;10.32;;;6.60;;
39486;SDS011;25173;50.430;18.926;2023-08-12T08:21:15;9.38;;;4.68;;
39486;SDS011;25173;50.430;18.926;2023-08-12T08:24:15;14.50;;;8.35;;
39486;SDS011;25173;50.430;18.926;2023-08-12T08:27:16;8.82;;;5.50;;
39486;SDS011;25173;50.430;18.926;2023-08-12T08:30:17;11.48;;;5.68;;
39486;SDS011;25173;50.430;18.926;2023-08-12T08:33:21;8.38;;;4.28;;
39486;SDS011;25173;50.430;18.926;2023-08-12T08:36:21;5.47;;;3.78;;
39486;SDS011;25173;50.430;18.926;2023-08-12T08:39:23;7.05;;;3.00;;
39486;SDS011;25173;50.430;18.926;2023-08-12T08:42:24;7.25;;;3.40;;
39486;SDS011;25173;50.430;18.926;2023-08-12T08:45:25;4.95;;;3.58;;
39486;SDS011;25173;50.430;18.926;2023-08-12T08:48:26;10.38;;;4.72;;
39486;SDS011;25173;50.430;18.926;2023-08-12T08:51:28;7.80;;;3.30;;
39486;SDS011;25173;50.430;18.926;2023-08-12T08:54:32;3.80;;;3.10;;
39486;SDS011;25173;50.430;18.926;2023-08-12T08:57:32;7.50;;;3.35;;
39486;SDS011;25173;50.430;18.926;2023-08-12T09:00:33;5.78;;;3.80;;
39486;SDS011;25173;50.430;18.926;2023-08-12T09:03:37;8.02;;;3.50;;
39486;SDS011;25173;50.430;18.926;2023-08-12T09:06:38;5.72;;;3.20;;
39486;SDS011;25173;50.430;18.926;2023-08-12T09:09:42;10.15;;;4.22;;
39486;SDS011;25173;50.430;18.926;2023-08-12T09:12:47;7.18;;;3.70;;
39486;SDS011;25173;50.430;18.926;2023-08-12T09:15:48;4.80;;;3.35;;
39486;SDS011;25173;50.430;18.926;2023-08-12T09:18:53;5.65;;;3.22;;
39486;SDS011;25173;50.430;18.926;2023-08-12T09:21:55;5.47;;;3.13;;
39486;SDS011;25173;50.430;18.926;2023-08-12T09:24:56;6.63;;;3.60;;
39486;SDS011;25173;50.430;18.926;2023-08-12T09:27:58;4.35;;;3.42;;
39486;SDS011;25173;50.430;18.926;2023-08-12T09:30:59;5.70;;;2.88;;
39486;SDS011;25173;50.430;18.926;2023-08-12T09:34:03;4.28;;;3.33;;
39486;SDS011;25173;50.430;18.926;2023-08-12T09:37:06;6.25;;;3.67;;
39486;SDS011;25173;50.430;18.926;2023-08-12T09:40:07;6.00;;;3.13;;
39486;SDS011;25173;50.430;18.926;2023-08-12T09:43:09;9.77;;;2.90;;
39486;SDS011;25173;50.430;18.926;2023-08-12T09:46:12;4.82;;;3.00;;
39486;SDS011;25173;50.430;18.926;2023-08-12T09:49:14;6.85;;;4.40;;
39486;SDS011;25173;50.430;18.926;2023-08-12T09:52:14;7.78;;;4.75;;
39486;SDS011;25173;50.430;18.926;2023-08-12T09:55:15;8.02;;;3.67;;
39486;SDS011;25173;50.430;18.926;2023-08-12T09:58:17;9.27;;;3.15;;
39486;SDS011;25173;50.430;18.926;2023-08-12T10:01:19;4.68;;;3.10;;
39486;SDS011;25173;50.430;18.926;2023-08-12T10:04:24;5.47;;;2.85;;
39486;SDS011;25173;50.430;18.926;2023-08-12T10:07:30;4.40;;;2.90;;
39486;SDS011;25173;50.430;18.926;2023-08-12T10:10:32;4.80;;;2.83;;
39486;SDS011;25173;50.430;18.926;2023-08-12T10:13:34;8.13;;;2.85;;
39486;SDS011;25173;50.430;18.926;2023-08-12T10:16:36;8.93;;;3.25;;
39486;SDS011;25173;50.430;18.926;2023-08-12T10:19:36;3.95;;;2.35;;
39486;SDS011;25173;50.430;18.926;2023-08-12T10:22:43;3.58;;;2.47;;
39486;SDS011;25173;50.430;18.926;2023-08-12T10:25:45;3.97;;;2.72;;
39486;SDS011;25173;50.430;18.926;2023-08-12T10:28:45;4.18;;;2.33;;
39486;SDS011;25173;50.430;18.926;2023-08-12T10:31:46;3.58;;;2.60;;
39486;SDS011;25173;50.430;18.926;2023-08-12T10:34:53;3.67;;;2.50;;
39486;SDS011;25173;50.430;18.926;2023-08-12T10:37:56;4.80;;;2.58;;
39486;SDS011;25173;50.430;18.926;2023-08-12T10:41:16;2.72;;;1.92;;
39486;SDS011;25173;50.430;18.926;2023-08-12T10:44:19;3.15;;;1.90;;
39486;SDS011;25173;50.430;18.926;2023-08-12T10:47:21;2.85;;;1.80;;
39486;SDS011;25173;50.430;18.926;2023-08-12T10:50:22;4.07;;;2.08;;
39486;SDS011;25173;50.430;18.926;2023-08-12T10:53:26;8.18;;;2.30;;
39486;SDS011;25173;50.430;18.926;2023-08-12T10:56:31;3.55;;;1.80;;
39486;SDS011;25173;50.430;18.926;2023-08-12T11:00:06;3.35;;;1.88;;
39486;SDS011;25173;50.430;18.926;2023-08-12T11:03:11;4.50;;;2.25;;
39486;SDS011;25173;50.430;18.926;2023-08-12T11:06:12;5.90;;;1.88;;
39486;SDS011;25173;50.430;18.926;2023-08-12T11:09:13;9.93;;;2.60;;
39486;SDS011;25173;50.430;18.926;2023-08-12T11:12:17;7.20;;;3.70;;
39486;SDS011;25173;50.430;18.926;2023-08-12T11:18:34;4.20;;;2.10;;
39486;SDS011;25173;50.430;18.926;2023-08-12T11:21:38;6.50;;;2.30;;
39486;SDS011;25173;50.430;18.926;2023-08-12T11:24:41;3.17;;;2.42;;
39486;SDS011;25173;50.430;18.926;2023-08-12T11:27:43;4.50;;;2.72;;
39486;SDS011;25173;50.430;18.926;2023-08-12T11:30:45;5.20;;;2.67;;
39486;SDS011;25173;50.430;18.926;2023-08-12T11:33:46;5.28;;;2.65;;
39486;SDS011;25173;50.430;18.926;2023-08-12T11:36:46;5.57;;;2.78;;
39486;SDS011;25173;50.430;18.926;2023-08-12T11:39:47;3.35;;;2.25;;
39486;SDS011;25173;50.430;18.926;2023-08-12T11:42:48;2.80;;;2.05;;
39486;SDS011;25173;50.430;18.926;2023-08-12T11:45:50;5.32;;;2.08;;
39486;SDS011;25173;50.430;18.926;2023-08-12T11:48:50;4.13;;;2.00;;
39486;SDS011;25173;50.430;18.926;2023-08-12T11:51:51;2.60;;;2.10;;
39486;SDS011;25173;50.430;18.926;2023-08-12T11:54:52;3.58;;;2.20;;
39486;SDS011;25173;50.430;18.926;2023-08-12T11:57:53;5.07;;;1.92;;
39486;SDS011;25173;50.430;18.926;2023-08-12T12:00:54;8.73;;;2.13;;
39486;SDS011;25173;50.430;18.926;2023-08-12T12:03:54;4.10;;;2.30;;
39486;SDS011;25173;50.430;18.926;2023-08-12T12:06:55;6.88;;;2.50;;
39486;SDS011;25173;50.430;18.926;2023-08-12T12:09:55;6.80;;;2.50;;
39486;SDS011;25173;50.430;18.926;2023-08-12T12:12:56;5.05;;;2.05;;
39486;SDS011;25173;50.430;18.926;2023-08-12T12:15:57;3.67;;;2.03;;
39486;SDS011;25173;50.430;18.926;2023-08-12T12:18:57;4.43;;;2.42;;
39486;SDS011;25173;50.430;18.926;2023-08-12T12:22:01;3.22;;;2.13;;
39486;SDS011;25173;50.430;18.926;2023-08-12T12:25:07;4.57;;;2.30;;
39486;SDS011;25173;50.430;18.926;2023-08-12T12:28:09;5.63;;;2.17;;
39486;SDS011;25173;50.430;18.926;2023-08-12T12:31:09;3.50;;;1.90;;
39486;SDS011;25173;50.430;18.926;2023-08-12T12:34:10;4.18;;;2.03;;
39486;SDS011;25173;50.430;18.926;2023-08-12T12:37:10;5.90;;;2.67;;
39486;SDS011;25173;50.430;18.926;2023-08-12T12:40:11;2.85;;;1.90;;
39486;SDS011;25173;50.430;18.926;2023-08-12T12:43:12;6.20;;;2.80;;
39486;SDS011;25173;50.430;18.926;2023-08-12T12:46:12;2.40;;;2.10;;
39486;SDS011;25173;50.430;18.926;2023-08-12T12:49:13;3.15;;;1.98;;
39486;SDS011;25173;50.430;18.926;2023-08-12T12:52:14;8.27;;;2.78;;
39486;SDS011;25173;50.430;18.926;2023-08-12T12:55:14;2.03;;;1.77;;
39486;SDS011;25173;50.430;18.926;2023-08-12T12:58:15;2.67;;;1.92;;
39486;SDS011;25173;50.430;18.926;2023-08-12T13:01:16;3.15;;;1.88;;
39486;SDS011;25173;50.430;18.926;2023-08-12T13:04:17;2.53;;;2.20;;
39486;SDS011;25173;50.430;18.926;2023-08-12T13:07:17;3.60;;;1.83;;
39486;SDS011;25173;50.430;18.926;2023-08-12T13:10:18;6.35;;;1.75;;
39486;SDS011;25173;50.430;18.926;2023-08-12T13:13:19;3.25;;;2.33;;
39486;SDS011;25173;50.430;18.926;2023-08-12T13:16:19;2.80;;;1.80;;
39486;SDS011;25173;50.430;18.926;2023-08-12T13:19:20;3.83;;;2.17;;
39486;SDS011;25173;50.430;18.926;2023-08-12T13:22:20;5.95;;;2.40;;
39486;SDS011;25173;50.430;18.926;2023-08-12T13:25:21;3.28;;;1.92;;
39486;SDS011;25173;50.430;18.926;2023-08-12T13:28:22;3.85;;;1.75;;
39486;SDS011;25173;50.430;18.926;2023-08-12T13:31:22;2.63;;;1.70;;
39486;SDS011;25173;50.430;18.926;2023-08-12T13:34:23;6.53;;;1.92;;
39486;SDS011;25173;50.430;18.926;2023-08-12T13:37:24;2.00;;;1.80;;
39486;SDS011;25173;50.430;18.926;2023-08-12T13:40:24;2.30;;;1.70;;
39486;SDS011;25173;50.430;18.926;2023-08-12T13:43:25;2.47;;;1.50;;
39486;SDS011;25173;50.430;18.926;2023-08-12T13:46:26;4.53;;;2.17;;
39486;SDS011;25173;50.430;18.926;2023-08-12T13:49:26;4.80;;;2.22;;
39486;SDS011;25173;50.430;18.926;2023-08-12T13:52:27;4.05;;;1.77;;
39486;SDS011;25173;50.430;18.926;2023-08-12T13:55:28;3.20;;;2.00;;
39486;SDS011;25173;50.430;18.926;2023-08-12T13:58:28;4.75;;;1.73;;
39486;SDS011;25173;50.430;18.926;2023-08-12T14:01:29;5.13;;;2.53;;
39486;SDS011;25173;50.430;18.926;2023-08-12T14:04:29;4.43;;;2.00;;
39486;SDS011;25173;50.430;18.926;2023-08-12T14:07:30;3.65;;;2.25;;
39486;SDS011;25173;50.430;18.926;2023-08-12T14:10:31;3.22;;;1.67;;
39486;SDS011;25173;50.430;18.926;2023-08-12T14:13:31;5.65;;;2.15;;
39486;SDS011;25173;50.430;18.926;2023-08-12T14:16:32;3.67;;;1.92;;
39486;SDS011;25173;50.430;18.926;2023-08-12T14:19:33;3.80;;;2.17;;
39486;SDS011;25173;50.430;18.926;2023-08-12T14:22:34;4.40;;;2.17;;
39486;SDS011;25173;50.430;18.926;2023-08-12T14:25:36;2.95;;;2.17;;
39486;SDS011;25173;50.430;18.926;2023-08-12T14:28:36;6.85;;;2.08;;
39486;SDS011;25173;50.430;18.926;2023-08-12T14:31:37;5.40;;;2.38;;
39486;SDS011;25173;50.430;18.926;2023-08-12T14:34:37;3.55;;;1.77;;
39486;SDS011;25173;50.430;18.926;2023-08-12T14:37:38;3.70;;;2.20;;
39486;SDS011;25173;50.430;18.926;2023-08-12T14:40:39;7.65;;;2.38;;
39486;SDS011;25173;50.430;18.926;2023-08-12T14:43:39;3.15;;;2.10;;
39486;SDS011;25173;50.430;18.926;2023-08-12T14:46:40;4.72;;;2.17;;
39486;SDS011;25173;50.430;18.926;2023-08-12T14:49:40;5.40;;;1.88;;
39486;SDS011;25173;50.430;18.926;2023-08-12T14:52:41;3.00;;;2.03;;
39486;SDS011;25173;50.430;18.926;2023-08-12T14:55:42;3.10;;;2.00;;
39486;SDS011;25173;50.430;18.926;2023-08-12T14:58:42;4.05;;;2.25;;
39486;SDS011;25173;50.430;18.926;2023-08-12T15:01:43;3.83;;;1.75;;
39486;SDS011;25173;50.430;18.926;2023-08-12T15:04:43;5.85;;;1.95;;
39486;SDS011;25173;50.430;18.926;2023-08-12T15:07:44;8.20;;;2.75;;
39486;SDS011;25173;50.430;18.926;2023-08-12T15:10:44;2.72;;;2.13;;
39486;SDS011;25173;50.430;18.926;2023-08-12T15:13:45;3.50;;;2.33;;
39486;SDS011;25173;50.430;18.926;2023-08-12T15:16:45;4.95;;;2.28;;
39486;SDS011;25173;50.430;18.926;2023-08-12T15:19:46;3.22;;;2.50;;
39486;SDS011;25173;50.430;18.926;2023-08-12T15:22:47;5.85;;;2.20;;
39486;SDS011;25173;50.430;18.926;2023-08-12T15:25:47;14.75;;;4.72;;
39486;SDS011;25173;50.430;18.926;2023-08-12T15:28:48;4.63;;;2.65;;
39486;SDS011;25173;50.430;18.926;2023-08-12T15:31:49;7.90;;;3.53;;
39486;SDS011;25173;50.430;18.926;2023-08-12T15:34:50;8.07;;;4.32;;
39486;SDS011;25173;50.430;18.926;2023-08-12T15:37:50;6.28;;;3.15;;
39486;SDS011;25173;50.430;18.926;2023-08-12T15:40:51;5.57;;;3.17;;
39486;SDS011;25173;50.430;18.926;2023-08-12T15:43:52;4.38;;;2.60;;
39486;SDS011;25173;50.430;18.926;2023-08-12T15:46:52;10.57;;;6.00;;
39486;SDS011;25173;50.430;18.926;2023-08-12T15:49:53;3.75;;;2.90;;
39486;SDS011;25173;50.430;18.926;2023-08-12T15:52:53;3.95;;;2.38;;
39486;SDS011;25173;50.430;18.926;2023-08-12T15:55:54;5.20;;;1.95;;
39486;SDS011;25173;50.430;18.926;2023-08-12T15:58:55;5.53;;;1.98;;
39486;SDS011;25173;50.430;18.926;2023-08-12T16:01:55;2.92;;;1.88;;
39486;SDS011;25173;50.430;18.926;2023-08-12T16:04:56;3.88;;;2.17;;
39486;SDS011;25173;50.430;18.926;2023-08-12T16:07:56;5.68;;;2.22;;
39486;SDS011;25173;50.430;18.926;2023-08-12T16:10:57;3.92;;;2.20;;
39486;SDS011;25173;50.430;18.926;2023-08-12T16:13:57;5.80;;;2.38;;
39486;SDS011;25173;50.430;18.926;2023-08-12T16:16:58;7.00;;;4.68;;
39486;SDS011;25173;50.430;18.926;2023-08-12T16:19:58;5.82;;;3.03;;
39486;SDS011;25173;50.430;18.926;2023-08-12T16:22:59;3.78;;;1.60;;
39486;SDS011;25173;50.430;18.926;2023-08-12T16:26:00;3.15;;;2.00;;
39486;SDS011;25173;50.430;18.926;2023-08-12T16:29:00;4.32;;;2.60;;
39486;SDS011;25173;50.430;18.926;2023-08-12T16:32:01;3.80;;;2.88;;
39486;SDS011;25173;50.430;18.926;2023-08-12T16:35:03;1.70;;;1.60;;
39486;SDS011;25173;50.430;18.926;2023-08-12T16:38:04;5.53;;;2.40;;
39486;SDS011;25173;50.430;18.926;2023-08-12T16:41:05;3.45;;;1.77;;
39486;SDS011;25173;50.430;18.926;2023-08-12T16:44:07;3.95;;;2.55;;
39486;SDS011;25173;50.430;18.926;2023-08-12T16:47:08;7.72;;;3.25;;
39486;SDS011;25173;50.430;18.926;2023-08-12T16:50:09;10.02;;;4.70;;
39486;SDS011;25173;50.430;18.926;2023-08-12T16:53:10;2.28;;;2.00;;
39486;SDS011;25173;50.430;18.926;2023-08-12T16:56:11;4.32;;;2.22;;
39486;SDS011;25173;50.430;18.926;2023-08-12T16:59:12;6.80;;;2.40;;
39486;SDS011;25173;50.430;18.926;2023-08-12T17:02:12;4.20;;;2.40;;
39486;SDS011;25173;50.430;18.926;2023-08-12T17:05:13;6.38;;;3.45;;
39486;SDS011;25173;50.430;18.926;2023-08-12T17:08:14;6.38;;;3.65;;
39486;SDS011;25173;50.430;18.926;2023-08-12T17:11:14;4.88;;;3.13;;
39486;SDS011;25173;50.430;18.926;2023-08-12T17:14:15;3.80;;;2.88;;
39486;SDS011;25173;50.430;18.926;2023-08-12T17:17:15;6.40;;;4.38;;
39486;SDS011;25173;50.430;18.926;2023-08-12T17:20:16;9.48;;;3.35;;
39486;SDS011;25173;50.430;18.926;2023-08-12T17:23:17;8.07;;;3.47;;
39486;SDS011;25173;50.430;18.926;2023-08-12T17:26:19;8.50;;;3.53;;
39486;SDS011;25173;50.430;18.926;2023-08-12T17:29:20;15.18;;;3.55;;
39486;SDS011;25173;50.430;18.926;2023-08-12T17:32:20;8.45;;;3.40;;
39486;SDS011;25173;50.430;18.926;2023-08-12T17:35:21;6.88;;;3.53;;
39486;SDS011;25173;50.430;18.926;2023-08-12T17:38:22;11.73;;;8.23;;
39486;SDS011;25173;50.430;18.926;2023-08-12T17:41:22;9.55;;;6.15;;
39486;SDS011;25173;50.430;18.926;2023-08-12T17:44:23;14.63;;;6.05;;
39486;SDS011;25173;50.430;18.926;2023-08-12T17:47:23;19.42;;;10.55;;
39486;SDS011;25173;50.430;18.926;2023-08-12T17:50:24;17.75;;;9.25;;